sensor_id;sensor_type;location;lat;lon;timestamp;pressure;altitude;pressure_sealevel;temperature
66795;BMP280;53698;52.738;4.752;2022-07-23T00:02:19;102159.69;;;14.57
66795;BMP280;53698;52.738;4.752;2022-07-23T00:04:45;102155.84;;;14.55
66795;BMP280;53698;52.738;4.752;2022-07-23T00:07:10;102158.25;;;14.53
66795;BMP280;53698;52.738;4.752;2022-07-23T00:09:36;102153.66;;;14.50
66795;BMP280;53698;52.738;4.752;2022-07-23T00:12:01;102153.75;;;14.46
66795;BMP280;53698;52.738;4.752;2022-07-23T00:14:26;102155.72;;;14.46
66795;BMP280;53698;52.738;4.752;2022-07-23T00:16:52;102155.06;;;14.42
66795;BMP280;53698;52.738;4.752;2022-07-23T00:19:17;102157.81;;;14.42
66795;BMP280;53698;52.738;4.752;2022-07-23T00:21:42;102153.75;;;14.46
66795;BMP280;53698;52.738;4.752;2022-07-23T00:24:08;102165.28;;;14.54
66795;BMP280;53698;52.738;4.752;2022-07-23T00:26:33;102157.19;;;14.62
66795;BMP280;53698;52.738;4.752;2022-07-23T00:28:58;102157.28;;;14.71
66795;BMP280;53698;52.738;4.752;2022-07-23T00:31:24;102154.66;;;14.80
66795;BMP280;53698;52.738;4.752;2022-07-23T00:33:49;102151.69;;;14.87
66795;BMP280;53698;52.738;4.752;2022-07-23T00:36:15;102150.28;;;14.94
66795;BMP280;53698;52.738;4.752;2022-07-23T00:38:40;102149.72;;;14.99
66795;BMP280;53698;52.738;4.752;2022-07-23T00:41:06;102143.25;;;15.06
66795;BMP280;53698;52.738;4.752;2022-07-23T00:43:31;102145.09;;;15.09
66795;BMP280;53698;52.738;4.752;2022-07-23T00:45:56;102138.41;;;15.10
66795;BMP280;53698;52.738;4.752;2022-07-23T00:48:22;102141.69;;;15.05
66795;BMP280;53698;52.738;4.752;2022-07-23T00:50:47;102134.44;;;14.98
66795;BMP280;53698;52.738;4.752;2022-07-23T00:53:13;102145.22;;;14.93
66795;BMP280;53698;52.738;4.752;2022-07-23T00:55:39;102142.16;;;14.91
66795;BMP280;53698;52.738;4.752;2022-07-23T00:58:05;102135.88;;;14.91
66795;BMP280;53698;52.738;4.752;2022-07-23T01:00:31;102136.84;;;14.96
66795;BMP280;53698;52.738;4.752;2022-07-23T01:02:57;102132.00;;;15.00
66795;BMP280;53698;52.738;4.752;2022-07-23T01:05:22;102130.69;;;15.05
66795;BMP280;53698;52.738;4.752;2022-07-23T01:07:51;102122.03;;;15.06
66795;BMP280;53698;52.738;4.752;2022-07-23T01:10:17;102114.09;;;15.08
66795;BMP280;53698;52.738;4.752;2022-07-23T01:13:08;102121.13;;;15.09
66795;BMP280;53698;52.738;4.752;2022-07-23T01:15:37;102119.47;;;15.11
66795;BMP280;53698;52.738;4.752;2022-07-23T01:18:04;102108.03;;;15.13
66795;BMP280;53698;52.738;4.752;2022-07-23T01:20:30;102109.25;;;15.12
66795;BMP280;53698;52.738;4.752;2022-07-23T01:22:56;102106.19;;;15.10
66795;BMP280;53698;52.738;4.752;2022-07-23T01:25:22;102117.19;;;15.10
66795;BMP280;53698;52.738;4.752;2022-07-23T01:27:54;102119.59;;;15.08
66795;BMP280;53698;52.738;4.752;2022-07-23T01:30:20;102117.84;;;15.02
66795;BMP280;53698;52.738;4.752;2022-07-23T01:32:45;102118.38;;;14.97
66795;BMP280;53698;52.738;4.752;2022-07-23T01:35:11;102124.00;;;14.93
66795;BMP280;53698;52.738;4.752;2022-07-23T01:37:37;102120.59;;;14.90
66795;BMP280;53698;52.738;4.752;2022-07-23T01:40:05;102119.91;;;14.86
66795;BMP280;53698;52.738;4.752;2022-07-23T01:42:30;102118.16;;;14.79
66795;BMP280;53698;52.738;4.752;2022-07-23T01:44:56;102123.13;;;14.72
66795;BMP280;53698;52.738;4.752;2022-07-23T01:47:21;102115.09;;;14.65
66795;BMP280;53698;52.738;4.752;2022-07-23T01:49:50;102112.09;;;14.60
66795;BMP280;53698;52.738;4.752;2022-07-23T01:52:42;102115.09;;;14.53
66795;BMP280;53698;52.738;4.752;2022-07-23T01:55:07;102116.06;;;14.47
66795;BMP280;53698;52.738;4.752;2022-07-23T01:57:33;102113.13;;;14.42
66795;BMP280;53698;52.738;4.752;2022-07-23T01:59:59;102116.41;;;14.37
66795;BMP280;53698;52.738;4.752;2022-07-23T02:02:24;102102.44;;;14.31
66795;BMP280;53698;52.738;4.752;2022-07-23T02:04:50;102101.75;;;14.27
66795;BMP280;53698;52.738;4.752;2022-07-23T02:07:17;102100.78;;;14.22
66795;BMP280;53698;52.738;4.752;2022-07-23T02:09:43;102104.06;;;14.17
66795;BMP280;53698;52.738;4.752;2022-07-23T02:12:11;102099.44;;;14.14
66795;BMP280;53698;52.738;4.752;2022-07-23T02:14:36;102096.03;;;14.10
66795;BMP280;53698;52.738;4.752;2022-07-23T02:17:02;102091.41;;;14.07
66795;BMP280;53698;52.738;4.752;2022-07-23T02:19:27;102097.00;;;14.04
66795;BMP280;53698;52.738;4.752;2022-07-23T02:21:52;102098.66;;;14.01
66795;BMP280;53698;52.738;4.752;2022-07-23T02:24:19;102096.81;;;13.98
66795;BMP280;53698;52.738;4.752;2022-07-23T02:26:45;102110.16;;;13.96
66795;BMP280;53698;52.738;4.752;2022-07-23T02:29:11;102112.59;;;13.94
66795;BMP280;53698;52.738;4.752;2022-07-23T02:31:36;102110.69;;;13.91
66795;BMP280;53698;52.738;4.752;2022-07-23T02:34:02;102117.06;;;13.89
66795;BMP280;53698;52.738;4.752;2022-07-23T02:36:28;102126.47;;;13.88
66795;BMP280;53698;52.738;4.752;2022-07-23T02:38:53;102126.94;;;13.86
66795;BMP280;53698;52.738;4.752;2022-07-23T02:41:19;102125.84;;;13.84
66795;BMP280;53698;52.738;4.752;2022-07-23T02:43:44;102124.72;;;13.81
66795;BMP280;53698;52.738;4.752;2022-07-23T02:46:11;102125.91;;;13.80
66795;BMP280;53698;52.738;4.752;2022-07-23T02:48:37;102117.75;;;13.77
66795;BMP280;53698;52.738;4.752;2022-07-23T02:51:02;102129.94;;;13.76
66795;BMP280;53698;52.738;4.752;2022-07-23T02:53:33;102137.41;;;13.75
66795;BMP280;53698;52.738;4.752;2022-07-23T02:55:59;102138.19;;;13.76
66795;BMP280;53698;52.738;4.752;2022-07-23T02:58:24;102129.94;;;13.76
66795;BMP280;53698;52.738;4.752;2022-07-23T03:00:52;102123.34;;;13.73
66795;BMP280;53698;52.738;4.752;2022-07-23T03:03:17;102131.25;;;13.72
66795;BMP280;53698;52.738;4.752;2022-07-23T03:05:43;102131.66;;;13.70
66795;BMP280;53698;52.738;4.752;2022-07-23T03:08:08;102131.75;;;13.67
66795;BMP280;53698;52.738;4.752;2022-07-23T03:10:37;102133.81;;;13.63
66795;BMP280;53698;52.738;4.752;2022-07-23T03:13:02;102138.53;;;13.62
66795;BMP280;53698;52.738;4.752;2022-07-23T03:15:28;102135.88;;;13.59
66795;BMP280;53698;52.738;4.752;2022-07-23T03:17:53;102138.63;;;13.59
66795;BMP280;53698;52.738;4.752;2022-07-23T03:20:19;102139.06;;;13.57
66795;BMP280;53698;52.738;4.752;2022-07-23T03:22:44;102135.47;;;13.60
66795;BMP280;53698;52.738;4.752;2022-07-23T03:25:10;102148.31;;;13.63
66795;BMP280;53698;52.738;4.752;2022-07-23T03:27:35;102137.44;;;13.60
66795;BMP280;53698;52.738;4.752;2022-07-23T03:30:01;102145.66;;;13.60
66795;BMP280;53698;52.738;4.752;2022-07-23T03:32:26;102137.44;;;13.60
66795;BMP280;53698;52.738;4.752;2022-07-23T03:34:52;102145.44;;;13.55
66795;BMP280;53698;52.738;4.752;2022-07-23T03:37:18;102150.16;;;13.54
66795;BMP280;53698;52.738;4.752;2022-07-23T03:39:45;102151.00;;;13.51
66795;BMP280;53698;52.738;4.752;2022-07-23T03:42:11;102148.69;;;13.50
66795;BMP280;53698;52.738;4.752;2022-07-23T03:44:37;102147.50;;;13.51
66795;BMP280;53698;52.738;4.752;2022-07-23T03:47:03;102152.97;;;13.51
66795;BMP280;53698;52.738;4.752;2022-07-23T03:49:29;102155.72;;;13.51
66795;BMP280;53698;52.738;4.752;2022-07-23T03:51:54;102156.50;;;13.51
66795;BMP280;53698;52.738;4.752;2022-07-23T03:54:20;102155.72;;;13.51
66795;BMP280;53698;52.738;4.752;2022-07-23T03:56:45;102147.50;;;13.51
66795;BMP280;53698;52.738;4.752;2022-07-23T03:59:10;102147.50;;;13.51
66795;BMP280;53698;52.738;4.752;2022-07-23T04:01:36;102143.53;;;13.52
66795;BMP280;53698;52.738;4.752;2022-07-23T04:04:02;102137.63;;;13.53
66795;BMP280;53698;52.738;4.752;2022-07-23T04:06:28;102138.41;;;13.54
66795;BMP280;53698;52.738;4.752;2022-07-23T04:08:54;102137.53;;;13.57
66795;BMP280;53698;52.738;4.752;2022-07-23T04:11:19;102138.31;;;13.57
66795;BMP280;53698;52.738;4.752;2022-07-23T04:13:45;102144.13;;;13.59
66795;BMP280;53698;52.738;4.752;2022-07-23T04:16:11;102136.66;;;13.59
66795;BMP280;53698;52.738;4.752;2022-07-23T04:18:36;102143.59;;;13.64
66795;BMP280;53698;52.738;4.752;2022-07-23T04:21:08;102137.91;;;13.71
66795;BMP280;53698;52.738;4.752;2022-07-23T04:23:35;102129.88;;;13.79
66795;BMP280;53698;52.738;4.752;2022-07-23T04:26:00;102135.06;;;13.90
66795;BMP280;53698;52.738;4.752;2022-07-23T04:28:26;102145.75;;;14.00
66795;BMP280;53698;52.738;4.752;2022-07-23T04:30:51;102134.91;;;14.08
66795;BMP280;53698;52.738;4.752;2022-07-23T04:33:17;102145.59;;;14.19
66795;BMP280;53698;52.738;4.752;2022-07-23T04:35:43;102138.56;;;14.30
66795;BMP280;53698;52.738;4.752;2022-07-23T04:38:13;102145.63;;;14.43
66795;BMP280;53698;52.738;4.752;2022-07-23T04:40:39;102143.22;;;14.57
66795;BMP280;53698;52.738;4.752;2022-07-23T04:43:04;102139.28;;;14.70
66795;BMP280;53698;52.738;4.752;2022-07-23T04:45:33;102143.13;;;14.85
66795;BMP280;53698;52.738;4.752;2022-07-23T04:47:58;102136.44;;;14.98
66795;BMP280;53698;52.738;4.752;2022-07-23T04:50:24;102147.94;;;15.17
66795;BMP280;53698;52.738;4.752;2022-07-23T04:52:55;102135.34;;;15.41
66795;BMP280;53698;52.738;4.752;2022-07-23T04:55:21;102129.56;;;15.60
66795;BMP280;53698;52.738;4.752;2022-07-23T04:57:47;102132.03;;;15.78
66795;BMP280;53698;52.738;4.752;2022-07-23T05:00:13;102135.38;;;15.95
66795;BMP280;53698;52.738;4.752;2022-07-23T05:02:39;102138.25;;;16.12
66795;BMP280;53698;52.738;4.752;2022-07-23T05:05:04;102136.38;;;16.30
66795;BMP280;53698;52.738;4.752;2022-07-23T05:07:30;102145.00;;;16.41
66795;BMP280;53698;52.738;4.752;2022-07-23T05:09:55;102136.38;;;16.60
66795;BMP280;53698;52.738;4.752;2022-07-23T05:12:21;102136.88;;;16.67
66795;BMP280;53698;52.738;4.752;2022-07-23T05:14:46;102139.34;;;16.74
66795;BMP280;53698;52.738;4.752;2022-07-23T05:17:11;102146.50;;;16.92
66795;BMP280;53698;52.738;4.752;2022-07-23T05:19:38;102138.59;;;17.12
66795;BMP280;53698;52.738;4.752;2022-07-23T05:22:03;102142.91;;;17.21
66795;BMP280;53698;52.738;4.752;2022-07-23T05:24:29;102135.41;;;17.31
66795;BMP280;53698;52.738;4.752;2022-07-23T05:26:54;102133.44;;;17.40
66795;BMP280;53698;52.738;4.752;2022-07-23T05:29:21;102131.44;;;17.49
66795;BMP280;53698;52.738;4.752;2022-07-23T05:31:46;102132.38;;;17.64
66795;BMP280;53698;52.738;4.752;2022-07-23T05:34:12;102132.69;;;17.74
66795;BMP280;53698;52.738;4.752;2022-07-23T05:36:38;102134.84;;;17.79
66795;BMP280;53698;52.738;4.752;2022-07-23T05:39:03;102141.91;;;17.89
66795;BMP280;53698;52.738;4.752;2022-07-23T05:41:32;102141.94;;;17.98
66795;BMP280;53698;52.738;4.752;2022-07-23T05:43:58;102139.91;;;18.07
66795;BMP280;53698;52.738;4.752;2022-07-23T05:46:24;102134.22;;;18.19
66795;BMP280;53698;52.738;4.752;2022-07-23T05:48:55;102131.41;;;18.36
66795;BMP280;53698;52.738;4.752;2022-07-23T05:51:53;102145.50;;;18.38
66795;BMP280;53698;52.738;4.752;2022-07-23T05:54:27;102141.03;;;18.50
66795;BMP280;53698;52.738;4.752;2022-07-23T05:56:52;102147.63;;;18.69
66795;BMP280;53698;52.738;4.752;2022-07-23T05:59:18;102142.97;;;18.75
66795;BMP280;53698;52.738;4.752;2022-07-23T06:01:43;102143.47;;;18.97
66795;BMP280;53698;52.738;4.752;2022-07-23T06:04:10;102143.56;;;19.11
66795;BMP280;53698;52.738;4.752;2022-07-23T06:06:38;102141.88;;;19.13
66795;BMP280;53698;52.738;4.752;2022-07-23T06:09:06;102143.75;;;19.30
66795;BMP280;53698;52.738;4.752;2022-07-23T06:11:31;102149.16;;;19.48
66795;BMP280;53698;52.738;4.752;2022-07-23T06:13:56;102154.38;;;19.32
66795;BMP280;53698;52.738;4.752;2022-07-23T06:16:30;102152.94;;;19.13
66795;BMP280;53698;52.738;4.752;2022-07-23T06:18:55;102150.03;;;19.08
66795;BMP280;53698;52.738;4.752;2022-07-23T06:21:21;102145.16;;;19.26
66795;BMP280;53698;52.738;4.752;2022-07-23T06:23:46;102151.44;;;19.58
66795;BMP280;53698;52.738;4.752;2022-07-23T06:26:11;102150.56;;;19.89
66795;BMP280;53698;52.738;4.752;2022-07-23T06:28:37;102151.00;;;20.10
66795;BMP280;53698;52.738;4.752;2022-07-23T06:31:02;102150.69;;;20.22
66795;BMP280;53698;52.738;4.752;2022-07-23T06:33:27;102149.38;;;20.18
66795;BMP280;53698;52.738;4.752;2022-07-23T06:35:53;102159.50;;;20.07
66795;BMP280;53698;52.738;4.752;2022-07-23T06:38:19;102150.78;;;20.14
66795;BMP280;53698;52.738;4.752;2022-07-23T06:40:45;102156.78;;;19.98
66795;BMP280;53698;52.738;4.752;2022-07-23T06:43:11;102156.13;;;19.89
66795;BMP280;53698;52.738;4.752;2022-07-23T06:45:36;102164.03;;;19.82
66795;BMP280;53698;52.738;4.752;2022-07-23T06:48:02;102172.22;;;19.76
66795;BMP280;53698;52.738;4.752;2022-07-23T06:50:28;102170.56;;;19.70
66795;BMP280;53698;52.738;4.752;2022-07-23T06:52:54;102171.66;;;19.87
66795;BMP280;53698;52.738;4.752;2022-07-23T06:55:19;102167.41;;;20.00
66795;BMP280;53698;52.738;4.752;2022-07-23T06:57:45;102166.28;;;20.20
66795;BMP280;53698;52.738;4.752;2022-07-23T07:00:11;102172.28;;;20.19
66795;BMP280;53698;52.738;4.752;2022-07-23T07:02:36;102173.06;;;20.19
66795;BMP280;53698;52.738;4.752;2022-07-23T07:05:02;102181.06;;;20.54
66795;BMP280;53698;52.738;4.752;2022-07-23T07:07:27;102179.66;;;20.92
66795;BMP280;53698;52.738;4.752;2022-07-23T07:09:53;102179.22;;;21.27
66795;BMP280;53698;52.738;4.752;2022-07-23T07:12:18;102177.75;;;21.65
66795;BMP280;53698;52.738;4.752;2022-07-23T07:14:44;102178.97;;;21.64
66795;BMP280;53698;52.738;4.752;2022-07-23T07:17:09;102186.06;;;21.84
66795;BMP280;53698;52.738;4.752;2022-07-23T07:19:36;102184.94;;;21.38
66795;BMP280;53698;52.738;4.752;2022-07-23T07:22:01;102184.63;;;21.16
66795;BMP280;53698;52.738;4.752;2022-07-23T07:24:27;102190.66;;;21.01
66795;BMP280;53698;52.738;4.752;2022-07-23T07:26:52;102190.72;;;21.20
66795;BMP280;53698;52.738;4.752;2022-07-23T07:29:17;102199.00;;;21.15
66795;BMP280;53698;52.738;4.752;2022-07-23T07:31:43;102193.06;;;20.93
66795;BMP280;53698;52.738;4.752;2022-07-23T07:34:08;102195.75;;;20.88
66795;BMP280;53698;52.738;4.752;2022-07-23T07:36:33;102196.53;;;20.74
66795;BMP280;53698;52.738;4.752;2022-07-23T07:39:00;102193.56;;;20.78
66795;BMP280;53698;52.738;4.752;2022-07-23T07:41:25;102202.84;;;20.75
66795;BMP280;53698;52.738;4.752;2022-07-23T07:43:51;102208.66;;;20.77
66795;BMP280;53698;52.738;4.752;2022-07-23T07:46:16;102204.19;;;20.79
66795;BMP280;53698;52.738;4.752;2022-07-23T07:48:42;102206.34;;;21.04
66795;BMP280;53698;52.738;4.752;2022-07-23T07:51:07;102216.03;;;21.08
66795;BMP280;53698;52.738;4.752;2022-07-23T07:53:33;102214.31;;;21.10
66795;BMP280;53698;52.738;4.752;2022-07-23T07:55:58;102211.91;;;21.51
66795;BMP280;53698;52.738;4.752;2022-07-23T07:58:24;102209.00;;;21.79
66795;BMP280;53698;52.738;4.752;2022-07-23T08:00:49;102212.00;;;21.95
66795;BMP280;53698;52.738;4.752;2022-07-23T08:03:14;102215.06;;;21.97
66795;BMP280;53698;52.738;4.752;2022-07-23T08:05:40;102217.75;;;21.92
66795;BMP280;53698;52.738;4.752;2022-07-23T08:08:05;102213.72;;;22.12
66795;BMP280;53698;52.738;4.752;2022-07-23T08:10:31;102209.56;;;22.27
66795;BMP280;53698;52.738;4.752;2022-07-23T08:12:58;102211.41;;;22.30
66795;BMP280;53698;52.738;4.752;2022-07-23T08:15:27;102204.19;;;22.63
66795;BMP280;53698;52.738;4.752;2022-07-23T08:17:53;102199.88;;;22.92
66795;BMP280;53698;52.738;4.752;2022-07-23T08:20:20;102200.63;;;22.93
66795;BMP280;53698;52.738;4.752;2022-07-23T08:22:52;102201.59;;;22.84
66795;BMP280;53698;52.738;4.752;2022-07-23T08:25:26;102211.59;;;23.07
66795;BMP280;53698;52.738;4.752;2022-07-23T08:27:51;102213.19;;;23.48
66795;BMP280;53698;52.738;4.752;2022-07-23T08:30:18;102202.78;;;23.90
66795;BMP280;53698;52.738;4.752;2022-07-23T08:35:30;102206.88;;;24.05
66795;BMP280;53698;52.738;4.752;2022-07-23T08:37:57;102202.69;;;24.47
66795;BMP280;53698;52.738;4.752;2022-07-23T08:40:23;102199.94;;;24.84
66795;BMP280;53698;52.738;4.752;2022-07-23T08:42:50;102208.34;;;24.89
66795;BMP280;53698;52.738;4.752;2022-07-23T08:45:20;102199.19;;;24.94
66795;BMP280;53698;52.738;4.752;2022-07-23T08:47:52;102206.06;;;24.72
66795;BMP280;53698;52.738;4.752;2022-07-23T08:50:19;102213.84;;;24.36
66795;BMP280;53698;52.738;4.752;2022-07-23T08:52:44;102209.28;;;24.38
66795;BMP280;53698;52.738;4.752;2022-07-23T08:55:10;102207.91;;;23.97
66795;BMP280;53698;52.738;4.752;2022-07-23T08:57:36;102216.69;;;23.84
66795;BMP280;53698;52.738;4.752;2022-07-23T09:00:03;102213.28;;;23.64
66795;BMP280;53698;52.738;4.752;2022-07-23T09:02:29;102213.97;;;23.13
66795;BMP280;53698;52.738;4.752;2022-07-23T09:04:54;102208.25;;;22.67
66795;BMP280;53698;52.738;4.752;2022-07-23T09:07:20;102213.69;;;23.12
66795;BMP280;53698;52.738;4.752;2022-07-23T09:09:45;102201.44;;;22.98
66795;BMP280;53698;52.738;4.752;2022-07-23T09:12:10;102200.38;;;23.26
66795;BMP280;53698;52.738;4.752;2022-07-23T09:14:44;102192.88;;;23.37
66795;BMP280;53698;52.738;4.752;2022-07-23T09:17:15;102205.53;;;23.84
66795;BMP280;53698;52.738;4.752;2022-07-23T09:19:42;102206.69;;;24.19
66795;BMP280;53698;52.738;4.752;2022-07-23T09:22:25;102205.94;;;24.24
66795;BMP280;53698;52.738;4.752;2022-07-23T09:27:58;102213.91;;;24.68
66795;BMP280;53698;52.738;4.752;2022-07-23T09:30:29;102217.72;;;24.60
66795;BMP280;53698;52.738;4.752;2022-07-23T09:33:11;102199.78;;;23.98
66795;BMP280;53698;52.738;4.752;2022-07-23T09:35:53;102211.91;;;23.90
66795;BMP280;53698;52.738;4.752;2022-07-23T09:38:20;102211.53;;;23.72
66795;BMP280;53698;52.738;4.752;2022-07-23T09:40:47;102217.22;;;23.88
66795;BMP280;53698;52.738;4.752;2022-07-23T09:43:13;102207.97;;;24.23
66795;BMP280;53698;52.738;4.752;2022-07-23T09:45:50;102218.41;;;24.44
66795;BMP280;53698;52.738;4.752;2022-07-23T09:48:16;102216.53;;;24.04
66795;BMP280;53698;52.738;4.752;2022-07-23T09:50:43;102214.50;;;23.99
66795;BMP280;53698;52.738;4.752;2022-07-23T09:53:09;102214.81;;;24.33
66795;BMP280;53698;52.738;4.752;2022-07-23T09:55:36;102215.50;;;23.96
66795;BMP280;53698;52.738;4.752;2022-07-23T09:58:03;102210.31;;;24.46
66795;BMP280;53698;52.738;4.752;2022-07-23T10:00:30;102219.50;;;24.73
66795;BMP280;53698;52.738;4.752;2022-07-23T10:02:56;102213.13;;;24.83
66795;BMP280;53698;52.738;4.752;2022-07-23T10:05:29;102216.16;;;24.59
66795;BMP280;53698;52.738;4.752;2022-07-23T10:08:33;102218.03;;;24.05
66795;BMP280;53698;52.738;4.752;2022-07-23T10:11:37;102212.31;;;24.35
66795;BMP280;53698;52.738;4.752;2022-07-23T10:14:23;102216.19;;;24.64
66795;BMP280;53698;52.738;4.752;2022-07-23T10:16:56;102210.34;;;24.62
66795;BMP280;53698;52.738;4.752;2022-07-23T10:19:21;102205.53;;;24.84
66795;BMP280;53698;52.738;4.752;2022-07-23T10:21:51;102193.09;;;25.22
66795;BMP280;53698;52.738;4.752;2022-07-23T10:30:17;102214.16;;;25.39
66795;BMP280;53698;52.738;4.752;2022-07-23T10:33:17;102211.09;;;25.48
66795;BMP280;53698;52.738;4.752;2022-07-23T10:36:07;102214.16;;;25.23
66795;BMP280;53698;52.738;4.752;2022-07-23T10:38:43;102204.78;;;25.16
66795;BMP280;53698;52.738;4.752;2022-07-23T10:41:13;102203.78;;;25.18
66795;BMP280;53698;52.738;4.752;2022-07-23T10:43:38;102210.09;;;25.14
66795;BMP280;53698;52.738;4.752;2022-07-23T10:46:24;102206.47;;;25.56
66795;BMP280;53698;52.738;4.752;2022-07-23T10:49:31;102208.19;;;25.75
66795;BMP280;53698;52.738;4.752;2022-07-23T10:54:52;102198.53;;;25.76
66795;BMP280;53698;52.738;4.752;2022-07-23T10:57:23;102203.06;;;25.89
66795;BMP280;53698;52.738;4.752;2022-07-23T11:02:29;102196.75;;;26.34
66795;BMP280;53698;52.738;4.752;2022-07-23T11:05:00;102198.63;;;26.60
66795;BMP280;53698;52.738;4.752;2022-07-23T11:07:26;102200.97;;;26.51
66795;BMP280;53698;52.738;4.752;2022-07-23T11:09:51;102202.84;;;25.87
66795;BMP280;53698;52.738;4.752;2022-07-23T11:15:04;102195.13;;;25.22
66795;BMP280;53698;52.738;4.752;2022-07-23T11:17:33;102188.47;;;25.46
66795;BMP280;53698;52.738;4.752;2022-07-23T11:27:47;102196.09;;;26.56
66795;BMP280;53698;52.738;4.752;2022-07-23T11:35:39;102190.53;;;27.37
66795;BMP280;53698;52.738;4.752;2022-07-23T11:40:43;102184.56;;;28.46
66795;BMP280;53698;52.738;4.752;2022-07-23T11:43:10;102188.53;;;28.99
66795;BMP280;53698;52.738;4.752;2022-07-23T11:45:44;102184.28;;;29.49
66795;BMP280;53698;52.738;4.752;2022-07-23T11:48:30;102192.56;;;29.04
66795;BMP280;53698;52.738;4.752;2022-07-23T11:50:56;102183.22;;;29.39
66795;BMP280;53698;52.738;4.752;2022-07-23T11:53:27;102176.28;;;29.53
66795;BMP280;53698;52.738;4.752;2022-07-23T11:55:53;102170.06;;;30.50
66795;BMP280;53698;52.738;4.752;2022-07-23T11:58:20;102177.66;;;30.42
66795;BMP280;53698;52.738;4.752;2022-07-23T12:00:46;102170.28;;;31.12
66795;BMP280;53698;52.738;4.752;2022-07-23T12:03:11;102166.88;;;31.60
66795;BMP280;53698;52.738;4.752;2022-07-23T12:05:38;102156.06;;;31.44
66795;BMP280;53698;52.738;4.752;2022-07-23T12:08:08;102167.41;;;31.04
66795;BMP280;53698;52.738;4.752;2022-07-23T12:10:39;102168.28;;;31.47
66795;BMP280;53698;52.738;4.752;2022-07-23T12:13:15;102155.56;;;31.53
66795;BMP280;53698;52.738;4.752;2022-07-23T12:15:50;102163.56;;;31.42
66795;BMP280;53698;52.738;4.752;2022-07-23T12:18:24;102163.97;;;31.46
66795;BMP280;53698;52.738;4.752;2022-07-23T12:20:54;102168.59;;;30.89
66795;BMP280;53698;52.738;4.752;2022-07-23T12:23:22;102164.16;;;31.20
66795;BMP280;53698;52.738;4.752;2022-07-23T12:25:50;102163.97;;;30.99
66795;BMP280;53698;52.738;4.752;2022-07-23T12:28:20;102166.09;;;31.05
66795;BMP280;53698;52.738;4.752;2022-07-23T12:30:54;102155.56;;;31.53
66795;BMP280;53698;52.738;4.752;2022-07-23T12:33:26;102155.97;;;31.57
66795;BMP280;53698;52.738;4.752;2022-07-23T12:35:54;102154.63;;;31.58
66795;BMP280;53698;52.738;4.752;2022-07-23T12:38:22;102154.00;;;32.21
66795;BMP280;53698;52.738;4.752;2022-07-23T12:40:56;102157.19;;;32.18
66795;BMP280;53698;52.738;4.752;2022-07-23T12:43:33;102163.78;;;32.20
66795;BMP280;53698;52.738;4.752;2022-07-23T12:48:39;102160.13;;;32.54
66795;BMP280;53698;52.738;4.752;2022-07-23T12:51:25;102159.38;;;32.04
66795;BMP280;53698;52.738;4.752;2022-07-23T12:53:57;102160.03;;;32.25
66795;BMP280;53698;52.738;4.752;2022-07-23T12:59:04;102152.28;;;31.76
66795;BMP280;53698;52.738;4.752;2022-07-23T13:01:37;102146.38;;;31.94
66795;BMP280;53698;52.738;4.752;2022-07-23T13:04:11;102153.81;;;31.43
66795;BMP280;53698;52.738;4.752;2022-07-23T13:06:39;102157.19;;;31.21
66795;BMP280;53698;52.738;4.752;2022-07-23T13:09:09;102159.03;;;31.73
66795;BMP280;53698;52.738;4.752;2022-07-23T13:11:35;102151.66;;;32.05
66795;BMP280;53698;52.738;4.752;2022-07-23T13:14:01;102148.88;;;32.12
66795;BMP280;53698;52.738;4.752;2022-07-23T13:16:30;102153.38;;;32.01
66795;BMP280;53698;52.738;4.752;2022-07-23T13:18:57;102153.38;;;32.01
66795;BMP280;53698;52.738;4.752;2022-07-23T13:21:23;102151.44;;;32.52
66795;BMP280;53698;52.738;4.752;2022-07-23T13:23:48;102157.66;;;32.36
66795;BMP280;53698;52.738;4.752;2022-07-23T13:26:14;102159.00;;;31.66
66795;BMP280;53698;52.738;4.752;2022-07-23T13:28:39;102154.53;;;31.70
66795;BMP280;53698;52.738;4.752;2022-07-23T13:31:05;102157.91;;;31.76
66795;BMP280;53698;52.738;4.752;2022-07-23T13:33:30;102143.63;;;32.16
66795;BMP280;53698;52.738;4.752;2022-07-23T13:35:56;102140.50;;;32.41
66795;BMP280;53698;52.738;4.752;2022-07-23T13:38:21;102142.94;;;32.37
66795;BMP280;53698;52.738;4.752;2022-07-23T13:40:48;102136.94;;;32.63
66795;BMP280;53698;52.738;4.752;2022-07-23T13:43:17;102133.97;;;32.90
66795;BMP280;53698;52.738;4.752;2022-07-23T13:45:43;102132.84;;;33.07
66795;BMP280;53698;52.738;4.752;2022-07-23T13:48:10;102126.97;;;32.69
66795;BMP280;53698;52.738;4.752;2022-07-23T13:50:36;102136.81;;;33.05
66795;BMP280;53698;52.738;4.752;2022-07-23T13:53:03;102126.03;;;32.74
66795;BMP280;53698;52.738;4.752;2022-07-23T13:55:30;102130.38;;;32.75
66795;BMP280;53698;52.738;4.752;2022-07-23T13:57:55;102131.72;;;32.88
66795;BMP280;53698;52.738;4.752;2022-07-23T14:00:21;102128.69;;;32.72
66795;BMP280;53698;52.738;4.752;2022-07-23T14:02:46;102131.09;;;32.46
66795;BMP280;53698;52.738;4.752;2022-07-23T14:05:11;102120.44;;;32.03
66795;BMP280;53698;52.738;4.752;2022-07-23T14:07:37;102125.00;;;32.20
66795;BMP280;53698;52.738;4.752;2022-07-23T14:10:04;102128.28;;;32.61
66795;BMP280;53698;52.738;4.752;2022-07-23T14:12:29;102130.66;;;32.28
66795;BMP280;53698;52.738;4.752;2022-07-23T14:14:55;102125.66;;;32.77
66795;BMP280;53698;52.738;4.752;2022-07-23T14:17:20;102132.06;;;32.71
66795;BMP280;53698;52.738;4.752;2022-07-23T14:19:46;102135.25;;;32.60
66795;BMP280;53698;52.738;4.752;2022-07-23T14:22:11;102133.41;;;32.84
66795;BMP280;53698;52.738;4.752;2022-07-23T14:24:36;102121.91;;;32.97
66795;BMP280;53698;52.738;4.752;2022-07-23T14:27:03;102126.25;;;33.05
66795;BMP280;53698;52.738;4.752;2022-07-23T14:29:28;102128.09;;;33.32
66795;BMP280;53698;52.738;4.752;2022-07-23T14:31:54;102127.19;;;32.86
66795;BMP280;53698;52.738;4.752;2022-07-23T14:34:19;102123.41;;;32.69
66795;BMP280;53698;52.738;4.752;2022-07-23T14:36:45;102129.59;;;32.53
66795;BMP280;53698;52.738;4.752;2022-07-23T14:39:10;102122.44;;;32.52
66795;BMP280;53698;52.738;4.752;2022-07-23T14:41:38;102130.91;;;32.59